This is the latest recevied weather packets stored in our database for station/object N1OF. If no packets are shown the sender has not sent any weather packets the latest 10 day(s).
| Time | Temp. | Humidity | Pressure | Rain* | Wind** | Luminosity | Snow |
|---|---|---|---|---|---|---|---|
| 1777590462 | 13.89° C | 40% | 1014.9 hPa | 0 mm | - | - | - |
| 1777590159 | 13.33° C | 41% | 1015.2 hPa | 0 mm | - | - | - |
| 1777589855 | 13.33° C | 42% | 1014.9 hPa | 0 mm | - | - | - |
| 1777589551 | 13.89° C | 42% | 1014.9 hPa | 0 mm | - | - | - |
| 1777589249 | 13.33° C | 42% | 1015.2 hPa | 0 mm | - | - | - |
| 1777588947 | 12.78° C | 43% | 1015.3 hPa | 0 mm | - | - | - |
| 1777588637 | 13.33° C | 42% | 1015.2 hPa | 0 mm | - | - | - |
| 1777588333 | 13.33° C | 42% | 1015.1 hPa | 0 mm | - | - | - |
| 1777588028 | 13.33° C | 41% | 1015.2 hPa | 0 mm | - | - | - |
| 1777587724 | 13.33° C | 41% | 1015.3 hPa | 0 mm | - | - | - |
| 1777587418 | 13.89° C | 40% | 1015.1 hPa | 0 mm | - | - | - |
| 1777587115 | 13.89° C | 41% | 1015.2 hPa | 0 mm | - | - | - |
| 1777586811 | 13.33° C | 42% | 1015.2 hPa | 0 mm | - | - | - |
| 1777586507 | 13.33° C | 41% | 1015.1 hPa | 0 mm | - | - | - |
| 1777586202 | 13.33° C | 41% | 1015.2 hPa | 0 mm | - | - | - |
| 1777585900 | 13.89° C | 42% | 1014.9 hPa | 0 mm | - | - | - |
| 1777585600 | 13.33° C | 42% | 1015.2 hPa | 0 mm | - | - | - |
| 1777585296 | 12.78° C | 42% | 1015.2 hPa | 0 mm | - | - | - |
| 1777584996 | 13.33° C | 40% | 1015.1 hPa | 0 mm | - | - | - |
| 1777584693 | 13.33° C | 42% | 1015.1 hPa | 0 mm | - | - | - |
| 1777584390 | 13.89° C | 40% | 1015.1 hPa | 0 mm | - | - | - |
| 1777584086 | 14.44° C | 39% | 1015.1 hPa | 0 mm | - | - | - |
| 1777583780 | 14.44° C | 40% | 1015.1 hPa | 0 mm | - | - | - |
| 1777583475 | 13.33° C | 39% | 1015.1 hPa | 0 mm | - | - | - |
| 1777583175 | 13.33° C | 40% | 1014.9 hPa | 0 mm | - | - | - |
* Rain latest hour (hover to see other rain measurements)
** Current wind speed in m/s (hover to see current wind gust speed)